sensor_id;sensor_type;location;lat;lon;timestamp;temperature;humidity
43151;DHT22;28755;51.478;5.702;2022-09-13T00:00:36;18.90;99.90
43151;DHT22;28755;51.478;5.702;2022-09-13T00:03:03;18.90;99.90
43151;DHT22;28755;51.478;5.702;2022-09-13T00:05:29;18.80;99.90
43151;DHT22;28755;51.478;5.702;2022-09-13T00:07:55;18.80;99.90
43151;DHT22;28755;51.478;5.702;2022-09-13T00:10:22;18.80;99.90
43151;DHT22;28755;51.478;5.702;2022-09-13T00:12:48;18.80;99.90
43151;DHT22;28755;51.478;5.702;2022-09-13T00:15:14;18.90;99.90
43151;DHT22;28755;51.478;5.702;2022-09-13T00:17:40;18.90;99.90
43151;DHT22;28755;51.478;5.702;2022-09-13T00:20:06;18.90;99.90
43151;DHT22;28755;51.478;5.702;2022-09-13T00:22:32;18.90;99.90
43151;DHT22;28755;51.478;5.702;2022-09-13T00:24:58;18.90;99.90
43151;DHT22;28755;51.478;5.702;2022-09-13T00:27:23;18.80;99.90
43151;DHT22;28755;51.478;5.702;2022-09-13T00:29:49;18.90;99.90
43151;DHT22;28755;51.478;5.702;2022-09-13T00:32:15;18.90;99.90
43151;DHT22;28755;51.478;5.702;2022-09-13T00:34:41;18.90;99.90
43151;DHT22;28755;51.478;5.702;2022-09-13T00:37:06;18.90;99.90
43151;DHT22;28755;51.478;5.702;2022-09-13T00:39:33;19.00;99.90
43151;DHT22;28755;51.478;5.702;2022-09-13T00:41:58;18.90;99.90
43151;DHT22;28755;51.478;5.702;2022-09-13T00:47:53;18.90;99.90
43151;DHT22;28755;51.478;5.702;2022-09-13T00:50:39;18.90;99.90
43151;DHT22;28755;51.478;5.702;2022-09-13T00:53:10;18.90;99.90
43151;DHT22;28755;51.478;5.702;2022-09-13T00:55:50;18.90;99.90
43151;DHT22;28755;51.478;5.702;2022-09-13T00:58:22;18.90;99.90
43151;DHT22;28755;51.478;5.702;2022-09-13T01:00:49;18.80;99.90
43151;DHT22;28755;51.478;5.702;2022-09-13T01:03:16;18.80;99.90
43151;DHT22;28755;51.478;5.702;2022-09-13T01:05:49;18.80;99.90
43151;DHT22;28755;51.478;5.702;2022-09-13T01:08:16;18.80;99.90
43151;DHT22;28755;51.478;5.702;2022-09-13T01:10:46;18.80;99.90
43151;DHT22;28755;51.478;5.702;2022-09-13T01:13:24;18.80;99.90
43151;DHT22;28755;51.478;5.702;2022-09-13T01:15:51;18.80;99.90
43151;DHT22;28755;51.478;5.702;2022-09-13T01:18:17;18.70;99.90
43151;DHT22;28755;51.478;5.702;2022-09-13T01:23:47;18.70;99.90
43151;DHT22;28755;51.478;5.702;2022-09-13T01:26:23;18.70;99.90
43151;DHT22;28755;51.478;5.702;2022-09-13T01:32:06;18.70;99.90
43151;DHT22;28755;51.478;5.702;2022-09-13T01:37:45;18.70;99.90
43151;DHT22;28755;51.478;5.702;2022-09-13T01:46:26;18.70;99.90
43151;DHT22;28755;51.478;5.702;2022-09-13T01:51:59;18.80;99.90
43151;DHT22;28755;51.478;5.702;2022-09-13T01:54:50;18.70;99.90
43151;DHT22;28755;51.478;5.702;2022-09-13T02:00:06;18.80;99.90
43151;DHT22;28755;51.478;5.702;2022-09-13T02:02:35;18.80;99.90
43151;DHT22;28755;51.478;5.702;2022-09-13T02:07:40;18.80;99.90
43151;DHT22;28755;51.478;5.702;2022-09-13T02:10:13;18.90;99.90
43151;DHT22;28755;51.478;5.702;2022-09-13T02:12:42;18.80;99.90
43151;DHT22;28755;51.478;5.702;2022-09-13T02:15:13;18.80;99.90
43151;DHT22;28755;51.478;5.702;2022-09-13T02:17:54;18.70;99.90
43151;DHT22;28755;51.478;5.702;2022-09-13T02:20:26;18.70;99.90
43151;DHT22;28755;51.478;5.702;2022-09-13T02:22:56;18.80;99.90
43151;DHT22;28755;51.478;5.702;2022-09-13T02:25:25;18.70;99.90
43151;DHT22;28755;51.478;5.702;2022-09-13T02:27:54;18.70;99.90
43151;DHT22;28755;51.478;5.702;2022-09-13T02:30:23;18.70;99.90
43151;DHT22;28755;51.478;5.702;2022-09-13T02:32:58;18.70;99.90
43151;DHT22;28755;51.478;5.702;2022-09-13T02:35:39;18.60;99.90
43151;DHT22;28755;51.478;5.702;2022-09-13T02:38:41;18.60;99.90
43151;DHT22;28755;51.478;5.702;2022-09-13T02:41:22;18.50;99.90
43151;DHT22;28755;51.478;5.702;2022-09-13T02:44:00;18.50;99.90
43151;DHT22;28755;51.478;5.702;2022-09-13T02:49:25;18.60;99.90
43151;DHT22;28755;51.478;5.702;2022-09-13T02:54:56;18.50;99.90
43151;DHT22;28755;51.478;5.702;2022-09-13T02:57:24;18.60;99.90
43151;DHT22;28755;51.478;5.702;2022-09-13T02:59:51;18.50;99.90
43151;DHT22;28755;51.478;5.702;2022-09-13T03:02:18;18.40;99.90
43151;DHT22;28755;51.478;5.702;2022-09-13T03:04:45;18.50;99.90
43151;DHT22;28755;51.478;5.702;2022-09-13T03:07:12;18.50;99.90
43151;DHT22;28755;51.478;5.702;2022-09-13T03:09:48;18.50;99.90
43151;DHT22;28755;51.478;5.702;2022-09-13T03:26:07;18.40;99.90
43151;DHT22;28755;51.478;5.702;2022-09-13T03:29:18;18.40;99.90
43151;DHT22;28755;51.478;5.702;2022-09-13T03:32:15;18.50;99.90
43151;DHT22;28755;51.478;5.702;2022-09-13T03:35:31;18.50;99.90
43151;DHT22;28755;51.478;5.702;2022-09-13T03:37:50;18.50;99.90
43151;DHT22;28755;51.478;5.702;2022-09-13T03:40:46;18.40;99.90
43151;DHT22;28755;51.478;5.702;2022-09-13T03:43:31;18.40;99.90
43151;DHT22;28755;51.478;5.702;2022-09-13T03:46:04;18.40;99.90
43151;DHT22;28755;51.478;5.702;2022-09-13T03:48:34;18.40;99.90
43151;DHT22;28755;51.478;5.702;2022-09-13T03:51:03;18.40;99.90
43151;DHT22;28755;51.478;5.702;2022-09-13T03:53:30;18.40;99.90
43151;DHT22;28755;51.478;5.702;2022-09-13T03:55:57;18.40;99.90
43151;DHT22;28755;51.478;5.702;2022-09-13T03:58:25;18.40;99.90
43151;DHT22;28755;51.478;5.702;2022-09-13T04:00:50;18.40;99.90
43151;DHT22;28755;51.478;5.702;2022-09-13T04:03:17;18.40;99.90
43151;DHT22;28755;51.478;5.702;2022-09-13T04:05:43;18.40;99.90
43151;DHT22;28755;51.478;5.702;2022-09-13T04:08:08;18.30;99.90
43151;DHT22;28755;51.478;5.702;2022-09-13T04:10:35;18.30;99.90
43151;DHT22;28755;51.478;5.702;2022-09-13T04:13:01;18.40;99.90
43151;DHT22;28755;51.478;5.702;2022-09-13T04:15:27;18.40;99.90
43151;DHT22;28755;51.478;5.702;2022-09-13T04:17:53;18.30;99.90
43151;DHT22;28755;51.478;5.702;2022-09-13T04:20:18;18.40;99.90
43151;DHT22;28755;51.478;5.702;2022-09-13T04:22:55;18.40;99.90
43151;DHT22;28755;51.478;5.702;2022-09-13T04:25:21;18.30;99.90
43151;DHT22;28755;51.478;5.702;2022-09-13T04:27:48;18.30;99.90
43151;DHT22;28755;51.478;5.702;2022-09-13T04:30:14;18.20;99.90
43151;DHT22;28755;51.478;5.702;2022-09-13T04:32:42;18.30;99.90
43151;DHT22;28755;51.478;5.702;2022-09-13T04:35:09;18.30;99.90
43151;DHT22;28755;51.478;5.702;2022-09-13T04:37:35;18.20;99.90
43151;DHT22;28755;51.478;5.702;2022-09-13T04:40:01;18.20;99.90
43151;DHT22;28755;51.478;5.702;2022-09-13T04:42:26;18.20;99.90
43151;DHT22;28755;51.478;5.702;2022-09-13T04:44:52;18.20;99.90
43151;DHT22;28755;51.478;5.702;2022-09-13T04:47:17;18.10;99.90
43151;DHT22;28755;51.478;5.702;2022-09-13T04:49:43;18.20;99.90
43151;DHT22;28755;51.478;5.702;2022-09-13T04:52:09;18.20;99.90
43151;DHT22;28755;51.478;5.702;2022-09-13T04:54:34;18.30;99.90
43151;DHT22;28755;51.478;5.702;2022-09-13T04:57:00;18.50;99.90
43151;DHT22;28755;51.478;5.702;2022-09-13T04:59:26;18.40;99.90
43151;DHT22;28755;51.478;5.702;2022-09-13T05:01:52;18.40;99.90
43151;DHT22;28755;51.478;5.702;2022-09-13T05:04:25;18.40;99.90
43151;DHT22;28755;51.478;5.702;2022-09-13T05:06:50;18.30;99.90
43151;DHT22;28755;51.478;5.702;2022-09-13T05:09:16;18.20;99.90
43151;DHT22;28755;51.478;5.702;2022-09-13T05:11:42;18.10;99.90
43151;DHT22;28755;51.478;5.702;2022-09-13T05:14:09;18.20;99.90
43151;DHT22;28755;51.478;5.702;2022-09-13T05:16:35;18.10;99.90
43151;DHT22;28755;51.478;5.702;2022-09-13T05:19:00;18.00;99.90
43151;DHT22;28755;51.478;5.702;2022-09-13T05:21:26;18.00;99.90
43151;DHT22;28755;51.478;5.702;2022-09-13T05:23:52;18.00;99.90
43151;DHT22;28755;51.478;5.702;2022-09-13T05:26:19;18.10;99.90
43151;DHT22;28755;51.478;5.702;2022-09-13T05:28:45;18.10;99.90
43151;DHT22;28755;51.478;5.702;2022-09-13T05:31:31;18.20;99.90
43151;DHT22;28755;51.478;5.702;2022-09-13T05:34:03;18.20;99.90
43151;DHT22;28755;51.478;5.702;2022-09-13T05:36:29;18.20;99.90
43151;DHT22;28755;51.478;5.702;2022-09-13T05:38:55;18.20;99.90
43151;DHT22;28755;51.478;5.702;2022-09-13T05:41:21;18.30;99.90
43151;DHT22;28755;51.478;5.702;2022-09-13T05:43:47;18.20;99.90
43151;DHT22;28755;51.478;5.702;2022-09-13T05:46:14;18.30;99.90
43151;DHT22;28755;51.478;5.702;2022-09-13T05:48:40;18.30;99.90
43151;DHT22;28755;51.478;5.702;2022-09-13T05:51:10;18.30;99.90
43151;DHT22;28755;51.478;5.702;2022-09-13T05:53:38;18.40;99.90
43151;DHT22;28755;51.478;5.702;2022-09-13T05:56:08;18.50;99.90
43151;DHT22;28755;51.478;5.702;2022-09-13T05:58:37;18.50;99.90
43151;DHT22;28755;51.478;5.702;2022-09-13T06:01:03;18.40;99.90
43151;DHT22;28755;51.478;5.702;2022-09-13T06:03:29;18.50;99.90
43151;DHT22;28755;51.478;5.702;2022-09-13T06:05:56;18.60;99.90
43151;DHT22;28755;51.478;5.702;2022-09-13T06:08:26;18.70;99.90
43151;DHT22;28755;51.478;5.702;2022-09-13T06:11:04;18.60;99.90
43151;DHT22;28755;51.478;5.702;2022-09-13T06:13:31;18.60;99.90
43151;DHT22;28755;51.478;5.702;2022-09-13T06:15:58;18.70;99.90
43151;DHT22;28755;51.478;5.702;2022-09-13T06:18:25;18.60;99.90
43151;DHT22;28755;51.478;5.702;2022-09-13T06:20:57;18.60;99.90
43151;DHT22;28755;51.478;5.702;2022-09-13T06:23:23;18.60;99.90
43151;DHT22;28755;51.478;5.702;2022-09-13T06:25:49;18.60;99.90
43151;DHT22;28755;51.478;5.702;2022-09-13T06:28:14;18.70;99.90
43151;DHT22;28755;51.478;5.702;2022-09-13T06:30:40;18.70;99.90
43151;DHT22;28755;51.478;5.702;2022-09-13T06:33:05;18.80;99.90
43151;DHT22;28755;51.478;5.702;2022-09-13T06:35:31;18.80;99.90
43151;DHT22;28755;51.478;5.702;2022-09-13T06:37:57;18.90;99.90
43151;DHT22;28755;51.478;5.702;2022-09-13T06:40:23;18.90;99.90
43151;DHT22;28755;51.478;5.702;2022-09-13T06:42:49;18.90;99.90
43151;DHT22;28755;51.478;5.702;2022-09-13T06:45:15;19.00;99.90
43151;DHT22;28755;51.478;5.702;2022-09-13T06:47:41;19.20;99.90
43151;DHT22;28755;51.478;5.702;2022-09-13T06:50:07;19.10;99.90
43151;DHT22;28755;51.478;5.702;2022-09-13T06:52:32;19.20;99.90
43151;DHT22;28755;51.478;5.702;2022-09-13T06:54:58;19.40;99.90
43151;DHT22;28755;51.478;5.702;2022-09-13T06:57:24;19.40;99.90
43151;DHT22;28755;51.478;5.702;2022-09-13T06:59:49;19.50;99.90
43151;DHT22;28755;51.478;5.702;2022-09-13T07:02:15;19.40;99.90
43151;DHT22;28755;51.478;5.702;2022-09-13T07:04:41;19.40;99.90
43151;DHT22;28755;51.478;5.702;2022-09-13T07:07:06;19.40;99.90
43151;DHT22;28755;51.478;5.702;2022-09-13T07:09:32;19.50;99.90
43151;DHT22;28755;51.478;5.702;2022-09-13T07:11:58;19.70;99.90
43151;DHT22;28755;51.478;5.702;2022-09-13T07:14:27;19.70;99.90
43151;DHT22;28755;51.478;5.702;2022-09-13T07:16:53;19.80;99.90
43151;DHT22;28755;51.478;5.702;2022-09-13T07:19:26;20.00;99.90
43151;DHT22;28755;51.478;5.702;2022-09-13T07:21:53;20.30;99.90
43151;DHT22;28755;51.478;5.702;2022-09-13T07:24:20;20.50;99.90
43151;DHT22;28755;51.478;5.702;2022-09-13T07:26:47;20.70;99.90
43151;DHT22;28755;51.478;5.702;2022-09-13T07:29:18;20.80;99.90
43151;DHT22;28755;51.478;5.702;2022-09-13T07:31:46;21.00;99.90
43151;DHT22;28755;51.478;5.702;2022-09-13T07:34:17;21.20;99.90
43151;DHT22;28755;51.478;5.702;2022-09-13T07:36:44;21.50;99.90
43151;DHT22;28755;51.478;5.702;2022-09-13T07:39:11;21.80;99.90
43151;DHT22;28755;51.478;5.702;2022-09-13T07:41:37;22.00;99.90
43151;DHT22;28755;51.478;5.702;2022-09-13T07:44:03;22.20;99.90
43151;DHT22;28755;51.478;5.702;2022-09-13T07:46:31;22.20;99.90
43151;DHT22;28755;51.478;5.702;2022-09-13T07:48:59;22.10;99.90
43151;DHT22;28755;51.478;5.702;2022-09-13T07:51:27;22.20;99.90
43151;DHT22;28755;51.478;5.702;2022-09-13T07:53:55;22.10;99.90
43151;DHT22;28755;51.478;5.702;2022-09-13T07:56:26;21.90;99.90
43151;DHT22;28755;51.478;5.702;2022-09-13T07:58:53;22.10;99.90
43151;DHT22;28755;51.478;5.702;2022-09-13T08:01:33;22.20;99.90
43151;DHT22;28755;51.478;5.702;2022-09-13T08:04:01;22.20;99.90
43151;DHT22;28755;51.478;5.702;2022-09-13T08:06:29;22.40;99.90
43151;DHT22;28755;51.478;5.702;2022-09-13T08:08:55;22.70;99.90
43151;DHT22;28755;51.478;5.702;2022-09-13T08:11:24;22.90;99.90
43151;DHT22;28755;51.478;5.702;2022-09-13T08:13:51;23.10;99.90
43151;DHT22;28755;51.478;5.702;2022-09-13T08:16:19;23.10;99.90
43151;DHT22;28755;51.478;5.702;2022-09-13T08:18:46;23.30;99.90
43151;DHT22;28755;51.478;5.702;2022-09-13T08:21:12;23.10;99.90
43151;DHT22;28755;51.478;5.702;2022-09-13T08:23:38;23.20;99.90
43151;DHT22;28755;51.478;5.702;2022-09-13T08:26:05;23.10;99.90
43151;DHT22;28755;51.478;5.702;2022-09-13T08:28:32;23.20;99.90
43151;DHT22;28755;51.478;5.702;2022-09-13T08:31:10;23.50;99.90
43151;DHT22;28755;51.478;5.702;2022-09-13T08:33:36;23.40;99.90
43151;DHT22;28755;51.478;5.702;2022-09-13T08:36:02;23.60;99.90
43151;DHT22;28755;51.478;5.702;2022-09-13T08:38:28;24.10;99.90
43151;DHT22;28755;51.478;5.702;2022-09-13T08:41:01;25.00;99.90
43151;DHT22;28755;51.478;5.702;2022-09-13T08:43:49;26.10;99.90
43151;DHT22;28755;51.478;5.702;2022-09-13T08:46:22;27.10;99.90
43151;DHT22;28755;51.478;5.702;2022-09-13T08:48:51;27.70;99.90
43151;DHT22;28755;51.478;5.702;2022-09-13T08:51:46;27.80;99.90
43151;DHT22;28755;51.478;5.702;2022-09-13T08:54:16;28.00;99.90
43151;DHT22;28755;51.478;5.702;2022-09-13T08:57:13;27.40;99.90
43151;DHT22;28755;51.478;5.702;2022-09-13T08:59:53;27.50;99.90
43151;DHT22;28755;51.478;5.702;2022-09-13T09:05:21;29.30;99.90
43151;DHT22;28755;51.478;5.702;2022-09-13T09:07:58;30.30;99.90
43151;DHT22;28755;51.478;5.702;2022-09-13T09:10:29;30.20;99.90
43151;DHT22;28755;51.478;5.702;2022-09-13T09:13:01;30.60;99.90
43151;DHT22;28755;51.478;5.702;2022-09-13T09:15:32;31.40;99.90
43151;DHT22;28755;51.478;5.702;2022-09-13T09:20:36;32.60;99.90
43151;DHT22;28755;51.478;5.702;2022-09-13T09:23:11;32.10;99.90
43151;DHT22;28755;51.478;5.702;2022-09-13T09:25:38;31.70;99.90
43151;DHT22;28755;51.478;5.702;2022-09-13T09:28:16;31.00;99.90
43151;DHT22;28755;51.478;5.702;2022-09-13T09:31:04;30.50;99.90
43151;DHT22;28755;51.478;5.702;2022-09-13T09:36:34;29.40;99.90
43151;DHT22;28755;51.478;5.702;2022-09-13T09:39:04;29.00;99.90
43151;DHT22;28755;51.478;5.702;2022-09-13T09:41:32;29.50;99.90
43151;DHT22;28755;51.478;5.702;2022-09-13T09:44:19;30.90;99.90
43151;DHT22;28755;51.478;5.702;2022-09-13T09:46:59;32.40;99.90
43151;DHT22;28755;51.478;5.702;2022-09-13T09:49:36;33.70;99.90
43151;DHT22;28755;51.478;5.702;2022-09-13T09:52:28;33.90;99.90
43151;DHT22;28755;51.478;5.702;2022-09-13T09:54:59;33.20;99.90
43151;DHT22;28755;51.478;5.702;2022-09-13T09:57:54;33.60;99.90
43151;DHT22;28755;51.478;5.702;2022-09-13T10:00:22;33.10;99.90
43151;DHT22;28755;51.478;5.702;2022-09-13T10:02:52;34.20;99.90
43151;DHT22;28755;51.478;5.702;2022-09-13T10:05:20;35.30;98.70
43151;DHT22;28755;51.478;5.702;2022-09-13T10:07:56;36.20;97.80
43151;DHT22;28755;51.478;5.702;2022-09-13T10:10:39;36.10;96.40
43151;DHT22;28755;51.478;5.702;2022-09-13T10:13:13;35.40;97.10
43151;DHT22;28755;51.478;5.702;2022-09-13T10:15:52;35.20;96.70
43151;DHT22;28755;51.478;5.702;2022-09-13T10:18:20;35.60;96.40
43151;DHT22;28755;51.478;5.702;2022-09-13T10:23:30;35.30;96.70
43151;DHT22;28755;51.478;5.702;2022-09-13T10:28:26;35.30;96.10
43151;DHT22;28755;51.478;5.702;2022-09-13T10:30:57;35.70;96.10
43151;DHT22;28755;51.478;5.702;2022-09-13T10:33:37;36.60;95.80
43151;DHT22;28755;51.478;5.702;2022-09-13T10:36:14;37.20;95.20
43151;DHT22;28755;51.478;5.702;2022-09-13T10:38:43;37.60;94.90
43151;DHT22;28755;51.478;5.702;2022-09-13T10:41:22;37.80;94.40
43151;DHT22;28755;51.478;5.702;2022-09-13T10:43:55;38.20;93.90
43151;DHT22;28755;51.478;5.702;2022-09-13T10:46:22;38.30;93.70
43151;DHT22;28755;51.478;5.702;2022-09-13T10:48:48;35.60;93.60
43151;DHT22;28755;51.478;5.702;2022-09-13T10:51:35;33.20;95.10
43151;DHT22;28755;51.478;5.702;2022-09-13T10:54:18;31.80;96.90
43151;DHT22;28755;51.478;5.702;2022-09-13T10:56:48;30.90;98.50
43151;DHT22;28755;51.478;5.702;2022-09-13T10:59:24;31.00;98.80
43151;DHT22;28755;51.478;5.702;2022-09-13T11:04:39;29.60;99.90
43151;DHT22;28755;51.478;5.702;2022-09-13T11:07:39;29.90;99.90
43151;DHT22;28755;51.478;5.702;2022-09-13T11:31:40;29.60;99.90
43151;DHT22;28755;51.478;5.702;2022-09-13T11:34:43;30.30;99.90
43151;DHT22;28755;51.478;5.702;2022-09-13T11:37:45;31.30;99.90
43151;DHT22;28755;51.478;5.702;2022-09-13T11:45:25;33.30;98.10
43151;DHT22;28755;51.478;5.702;2022-09-13T11:54:04;37.10;97.00
43151;DHT22;28755;51.478;5.702;2022-09-13T11:56:55;37.90;95.70
43151;DHT22;28755;51.478;5.702;2022-09-13T12:02:03;38.50;93.30
43151;DHT22;28755;51.478;5.702;2022-09-13T12:04:36;38.50;93.40
43151;DHT22;28755;51.478;5.702;2022-09-13T12:07:08;38.30;92.70
43151;DHT22;28755;51.478;5.702;2022-09-13T12:09:42;37.80;92.90
43151;DHT22;28755;51.478;5.702;2022-09-13T12:12:11;35.40;93.00
43151;DHT22;28755;51.478;5.702;2022-09-13T12:14:56;34.00;94.20
43151;DHT22;28755;51.478;5.702;2022-09-13T12:17:28;33.30;94.50
43151;DHT22;28755;51.478;5.702;2022-09-13T12:19:57;32.10;95.80
43151;DHT22;28755;51.478;5.702;2022-09-13T12:22:27;31.60;96.70
43151;DHT22;28755;51.478;5.702;2022-09-13T12:24:56;30.80;96.70
43151;DHT22;28755;51.478;5.702;2022-09-13T12:27:39;30.30;98.10
43151;DHT22;28755;51.478;5.702;2022-09-13T12:30:14;30.40;98.40
43151;DHT22;28755;51.478;5.702;2022-09-13T12:32:41;30.40;99.10
43151;DHT22;28755;51.478;5.702;2022-09-13T12:35:33;30.50;98.50
43151;DHT22;28755;51.478;5.702;2022-09-13T12:41:16;30.60;99.10
43151;DHT22;28755;51.478;5.702;2022-09-13T12:46:40;30.00;98.50
43151;DHT22;28755;51.478;5.702;2022-09-13T12:49:47;29.10;99.90
43151;DHT22;28755;51.478;5.702;2022-09-13T12:52:34;29.00;99.90
43151;DHT22;28755;51.478;5.702;2022-09-13T12:55:31;28.50;99.90
43151;DHT22;28755;51.478;5.702;2022-09-13T13:01:13;27.50;99.90
43151;DHT22;28755;51.478;5.702;2022-09-13T13:04:01;27.80;99.90
43151;DHT22;28755;51.478;5.702;2022-09-13T13:06:56;28.60;99.90
43151;DHT22;28755;51.478;5.702;2022-09-13T13:09:35;28.70;99.90
43151;DHT22;28755;51.478;5.702;2022-09-13T13:12:03;28.50;99.90
43151;DHT22;28755;51.478;5.702;2022-09-13T13:17:46;28.10;99.90
43151;DHT22;28755;51.478;5.702;2022-09-13T13:26:04;27.30;99.90
43151;DHT22;28755;51.478;5.702;2022-09-13T13:36:21;27.10;99.90
43151;DHT22;28755;51.478;5.702;2022-09-13T13:38:48;27.40;99.90
43151;DHT22;28755;51.478;5.702;2022-09-13T13:44:01;27.50;99.90
43151;DHT22;28755;51.478;5.702;2022-09-13T13:46:54;27.60;99.90
43151;DHT22;28755;51.478;5.702;2022-09-13T13:57:27;27.20;99.90
43151;DHT22;28755;51.478;5.702;2022-09-13T14:00:28;27.10;99.90
43151;DHT22;28755;51.478;5.702;2022-09-13T14:02:58;27.10;99.90
43151;DHT22;28755;51.478;5.702;2022-09-13T14:05:48;27.00;99.90
43151;DHT22;28755;51.478;5.702;2022-09-13T14:08:33;27.20;99.90
43151;DHT22;28755;51.478;5.702;2022-09-13T14:19:49;26.80;99.90
43151;DHT22;28755;51.478;5.702;2022-09-13T14:24:45;26.70;99.90
43151;DHT22;28755;51.478;5.702;2022-09-13T14:27:25;26.90;99.90
43151;DHT22;28755;51.478;5.702;2022-09-13T14:29:57;26.80;99.90
43151;DHT22;28755;51.478;5.702;2022-09-13T14:32:29;26.80;99.90
43151;DHT22;28755;51.478;5.702;2022-09-13T14:35:04;26.70;99.90
43151;DHT22;28755;51.478;5.702;2022-09-13T14:37:34;26.60;99.90
43151;DHT22;28755;51.478;5.702;2022-09-13T14:40:23;26.50;99.90
43151;DHT22;28755;51.478;5.702;2022-09-13T14:42:51;26.50;99.90
43151;DHT22;28755;51.478;5.702;2022-09-13T14:45:35;26.40;99.90
43151;DHT22;28755;51.478;5.702;2022-09-13T14:48:06;26.20;99.90
43151;DHT22;28755;51.478;5.702;2022-09-13T14:50:39;26.10;99.90
43151;DHT22;28755;51.478;5.702;2022-09-13T14:53:11;26.00;99.90
43151;DHT22;28755;51.478;5.702;2022-09-13T14:55:53;26.00;99.90
43151;DHT22;28755;51.478;5.702;2022-09-13T14:58:33;26.00;99.90
43151;DHT22;28755;51.478;5.702;2022-09-13T15:01:03;26.10;99.90
43151;DHT22;28755;51.478;5.702;2022-09-13T15:03:31;26.10;99.90
43151;DHT22;28755;51.478;5.702;2022-09-13T15:05:59;25.90;99.90
43151;DHT22;28755;51.478;5.702;2022-09-13T15:10:58;25.70;99.90
43151;DHT22;28755;51.478;5.702;2022-09-13T15:13:23;25.50;99.90
43151;DHT22;28755;51.478;5.702;2022-09-13T15:15:50;25.50;99.90
43151;DHT22;28755;51.478;5.702;2022-09-13T15:21:14;25.50;99.90
43151;DHT22;28755;51.478;5.702;2022-09-13T15:23:42;25.40;99.90
43151;DHT22;28755;51.478;5.702;2022-09-13T15:26:22;25.40;99.90
43151;DHT22;28755;51.478;5.702;2022-09-13T15:28:58;25.40;99.90
43151;DHT22;28755;51.478;5.702;2022-09-13T15:31:29;25.40;99.90
43151;DHT22;28755;51.478;5.702;2022-09-13T15:36:47;25.20;99.90
43151;DHT22;28755;51.478;5.702;2022-09-13T15:39:16;25.30;99.90
43151;DHT22;28755;51.478;5.702;2022-09-13T15:41:55;25.30;99.90
43151;DHT22;28755;51.478;5.702;2022-09-13T15:44:22;25.30;99.90
43151;DHT22;28755;51.478;5.702;2022-09-13T15:46:56;25.30;99.90
43151;DHT22;28755;51.478;5.702;2022-09-13T15:49:26;25.20;99.90
43151;DHT22;28755;51.478;5.702;2022-09-13T15:52:02;25.30;99.90
43151;DHT22;28755;51.478;5.702;2022-09-13T15:54:38;25.30;99.90
43151;DHT22;28755;51.478;5.702;2022-09-13T15:57:20;25.30;99.90
43151;DHT22;28755;51.478;5.702;2022-09-13T15:59:47;25.40;99.90
43151;DHT22;28755;51.478;5.702;2022-09-13T16:02:18;25.30;99.90
43151;DHT22;28755;51.478;5.702;2022-09-13T16:04:44;25.40;99.90
43151;DHT22;28755;51.478;5.702;2022-09-13T16:07:10;25.20;99.90
43151;DHT22;28755;51.478;5.702;2022-09-13T16:09:35;25.10;99.90
43151;DHT22;28755;51.478;5.702;2022-09-13T16:12:03;25.00;99.90
43151;DHT22;28755;51.478;5.702;2022-09-13T16:14:29;24.90;99.90
43151;DHT22;28755;51.478;5.702;2022-09-13T16:16:54;25.00;99.90
43151;DHT22;28755;51.478;5.702;2022-09-13T16:19:22;24.80;99.90
43151;DHT22;28755;51.478;5.702;2022-09-13T16:21:48;24.70;99.90
43151;DHT22;28755;51.478;5.702;2022-09-13T16:24:15;24.70;99.90
43151;DHT22;28755;51.478;5.702;2022-09-13T16:26:43;24.80;99.90
43151;DHT22;28755;51.478;5.702;2022-09-13T16:29:12;24.90;99.90
43151;DHT22;28755;51.478;5.702;2022-09-13T16:31:38;24.80;99.90
43151;DHT22;28755;51.478;5.702;2022-09-13T16:34:04;24.90;99.90
43151;DHT22;28755;51.478;5.702;2022-09-13T16:36:29;24.80;99.90
43151;DHT22;28755;51.478;5.702;2022-09-13T16:38:56;24.80;99.90
43151;DHT22;28755;51.478;5.702;2022-09-13T16:41:22;24.70;99.90
43151;DHT22;28755;51.478;5.702;2022-09-13T16:43:48;24.70;99.90
43151;DHT22;28755;51.478;5.702;2022-09-13T16:46:14;24.60;99.90
43151;DHT22;28755;51.478;5.702;2022-09-13T16:48:40;24.50;99.90
43151;DHT22;28755;51.478;5.702;2022-09-13T16:51:11;24.50;99.90
43151;DHT22;28755;51.478;5.702;2022-09-13T16:53:39;24.40;99.90
43151;DHT22;28755;51.478;5.702;2022-09-13T16:56:12;24.40;99.90
43151;DHT22;28755;51.478;5.702;2022-09-13T16:58:40;24.20;99.90
43151;DHT22;28755;51.478;5.702;2022-09-13T17:01:08;24.20;99.90
43151;DHT22;28755;51.478;5.702;2022-09-13T17:03:34;24.20;99.90
43151;DHT22;28755;51.478;5.702;2022-09-13T17:06:07;24.20;99.90
43151;DHT22;28755;51.478;5.702;2022-09-13T17:08:34;24.00;99.90
43151;DHT22;28755;51.478;5.702;2022-09-13T17:11:04;24.10;99.90
43151;DHT22;28755;51.478;5.702;2022-09-13T17:13:30;24.00;99.90
43151;DHT22;28755;51.478;5.702;2022-09-13T17:15:55;23.90;99.90
43151;DHT22;28755;51.478;5.702;2022-09-13T17:18:21;23.90;99.90
43151;DHT22;28755;51.478;5.702;2022-09-13T17:20:48;23.90;99.90
43151;DHT22;28755;51.478;5.702;2022-09-13T17:23:14;23.90;99.90
43151;DHT22;28755;51.478;5.702;2022-09-13T17:25:45;23.80;99.90
43151;DHT22;28755;51.478;5.702;2022-09-13T17:28:12;23.70;99.90
43151;DHT22;28755;51.478;5.702;2022-09-13T17:30:37;23.70;99.90
43151;DHT22;28755;51.478;5.702;2022-09-13T17:33:03;23.60;99.90
43151;DHT22;28755;51.478;5.702;2022-09-13T17:35:30;23.50;99.90
43151;DHT22;28755;51.478;5.702;2022-09-13T17:37:57;23.50;99.90
43151;DHT22;28755;51.478;5.702;2022-09-13T17:40:23;23.40;99.90
43151;DHT22;28755;51.478;5.702;2022-09-13T17:42:49;23.40;99.90
43151;DHT22;28755;51.478;5.702;2022-09-13T17:45:15;23.30;99.90
43151;DHT22;28755;51.478;5.702;2022-09-13T17:47:41;23.30;99.90
43151;DHT22;28755;51.478;5.702;2022-09-13T17:50:07;23.30;99.90
43151;DHT22;28755;51.478;5.702;2022-09-13T17:52:32;23.20;99.90
43151;DHT22;28755;51.478;5.702;2022-09-13T17:54:58;23.10;99.90
43151;DHT22;28755;51.478;5.702;2022-09-13T17:57:24;23.00;99.90
43151;DHT22;28755;51.478;5.702;2022-09-13T17:59:49;22.90;99.90
43151;DHT22;28755;51.478;5.702;2022-09-13T18:02:16;22.70;99.90
43151;DHT22;28755;51.478;5.702;2022-09-13T18:04:42;22.60;99.90
43151;DHT22;28755;51.478;5.702;2022-09-13T18:07:07;22.70;99.90
43151;DHT22;28755;51.478;5.702;2022-09-13T18:09:33;22.50;99.90
43151;DHT22;28755;51.478;5.702;2022-09-13T18:11:58;22.40;99.90
43151;DHT22;28755;51.478;5.702;2022-09-13T18:14:24;22.40;99.90
43151;DHT22;28755;51.478;5.702;2022-09-13T18:16:52;22.40;99.90
43151;DHT22;28755;51.478;5.702;2022-09-13T18:19:21;22.30;99.90
43151;DHT22;28755;51.478;5.702;2022-09-13T18:21:47;22.30;99.90
43151;DHT22;28755;51.478;5.702;2022-09-13T18:24:13;22.20;99.90
43151;DHT22;28755;51.478;5.702;2022-09-13T18:26:38;22.10;99.90
43151;DHT22;28755;51.478;5.702;2022-09-13T18:29:08;22.10;99.90